Portada
METAR-TAF:

METAR-TAF

Aeroports :

Aeroport d'Oslo-Gardermoen

Oslo, Noruega

latitud: 60-12N, longitud: 011-05E, altitud: 208 m

Observació

L'informe es va fer fa 12 minuts, a les 20:20 UTC
Vent 3 kt del Sud
Temperatura 13°C
Humitat 72%
Pressió 1028 hPa
Visibilitat 10 km o més
sense núvols per sota de 1500 mi sense presència de cumulonimbus.

METAR: ENGM 262020Z 19003KT CAVOK 13/08 Q1028 NOSIG

Hora: 22:32 (20:32 UTC)

Pronòstic

Pronòstic vàlid del 26 a les 18 UTC al 27 a les 18 UTC
Vent 10 kt del Sud
Visibilitat 10 km o més
sense núvols per sota de 1500 mi sense presència de cumulonimbus.
Evolucionant progressivament
l' 26 a les 18 UTC al 26 a les 20 UTC
Vent 5 kt amb direcció variable
Evolucionant progressivament
l' 27 a les 04 UTC al 27 a les 06 UTC
Vent 10 kt del Nord/Nord-Oest

TAF: ENGM 2618/2718 19010KT CAVOK BECMG 2618/2620 VRB05KT BECMG 2704/2706 34010KT

Observacions i pronòstics meteorològics de més de 4000 aeroports (METAR i TAF).

Les estacions disponibles són els punts grocs i vermells al mapa.

Posi el ratolí al punt desitjat per veure el nom de l'estació.

Feu clic per veure les observacions i els pronòstics meteorològics.

Per canviar el mapa: feu clic els botons verds amb una creu de color negre per apropar; al botó verd amb un guió per allunyar la imatge; o en les fletxes verdes per a mapes adjacents.


METAR-TAF: